Flight Track Log - Related Links

Times and Time Zones

All times are in EST time to prevent confusion due to time zone crossing. See the CSC8717 flight status page for this flight to view local times or setup timezone preferences in your user account.


Time Position Orientation Groundspeed Altitude Reporting Facility
EST Latitude Longitude Course Direction KTS MPH feet Rate Location/Type
Thu 11:12:00 PM 31.7839 104.5638 337° Northwest  Level Estimated
Thu 11:13:00 PM 31.8550 104.5282 337° Northwest  Level Estimated
Thu 11:14:00 PM 31.9262 104.4925 337° Northwest  Level Estimated
Thu 11:15:00 PM 31.9973 104.4568 337° Northwest  Level Estimated
Thu 11:16:00 PM 32.0684 104.4210 337° Northwest  Level Estimated
Thu 11:17:00 PM 32.1395 104.3852 337° Northwest  Level Estimated
Thu 11:18:00 PM 32.2106 104.3493 337° Northwest  Level Estimated
Thu 11:19:00 PM 32.2817 104.3133 337° Northwest  Level Estimated
Thu 11:20:00 PM 32.3527 104.2773 337° Northwest  Level Estimated
Thu 11:21:00 PM 32.4238 104.2412 337° Northwest  Level Estimated
Thu 11:22:00 PM 32.4948 104.2051 337° Northwest  Level Estimated
Thu 11:23:00 PM 32.5659 104.1689 337° Northwest  Level Estimated
Thu 11:24:00 PM 32.6369 104.1327 337° Northwest  Level Estimated
Thu 11:25:00 PM 32.7079 104.0964 337° Northwest  Level Estimated
Thu 11:26:00 PM 32.7789 104.0600 337° Northwest  Level Estimated
Thu 11:27:00 PM 32.8499 104.0236 337° Northwest  Level Estimated
Thu 11:28:00 PM 32.9209 103.9871 337° Northwest  Level Estimated
Thu 11:29:00 PM 32.9918 103.9506 337° Northwest  Level Estimated
Thu 11:30:00 PM 33.0628 103.9140 337° Northwest  Level Estimated
Thu 11:31:00 PM 33.1338 103.8774 337° Northwest  Level Estimated
Thu 11:32:00 PM 33.2047 103.8407 337° Northwest  Level Estimated
Thu 11:33:00 PM 33.2756 103.8039 337° Northwest  Level Estimated
Thu 11:34:00 PM 33.3465 103.7671 337° Northwest  Level Estimated
Thu 11:35:00 PM 33.4174 103.7302 337° Northwest  Level Estimated
Thu 11:36:00 PM 33.4883 103.6932 337° Northwest  Level Estimated
Thu 11:37:00 PM 33.5592 103.6562 336° Northwest  Level Estimated
Thu 11:38:00 PM 33.6301 103.6191 336° Northwest  Level Estimated
Thu 11:39:00 PM 33.7010 103.5820 336° Northwest  Level Estimated
Thu 11:40:00 PM 33.7718 103.5448 336° Northwest  Level Estimated
Thu 11:41:00 PM 33.8427 103.5076 336° Northwest  Level Estimated
Thu 11:42:00 PM 33.9135 103.4703 336° Northwest  Level Estimated
Thu 11:43:00 PM 33.9843 103.4329 336° Northwest  Level Estimated
Thu 11:44:00 PM 34.0551 103.3954 336° Northwest  Level Estimated
Thu 11:45:00 PM 34.1259 103.3579 336° Northwest  Level Estimated
Thu 11:46:00 PM 34.1967 103.3204 336° Northwest  Level Estimated
Thu 11:47:00 PM 34.2675 103.2827 336° Northwest  Level Estimated
Thu 11:48:00 PM 34.3382 103.2450 336° Northwest  Level Estimated
Thu 11:49:00 PM 34.4090 103.2073 336° Northwest  Level Estimated
Thu 11:50:00 PM 34.4797 103.1695 336° Northwest  Level Estimated
Thu 11:51:00 PM 34.5504 103.1316 336° Northwest  Level Estimated
Thu 11:52:00 PM 34.6212 103.0937 336° Northwest  Level Estimated
Thu 11:53:00 PM 34.6919 103.0556 336° Northwest  Level Estimated
Thu 11:54:00 PM 34.7626 103.0176 336° Northwest  Level Estimated
Thu 11:55:00 PM 34.8332 102.9794 336° Northwest  Level Estimated
Thu 11:56:00 PM 34.9039 102.9412 336° Northwest  Level Estimated
Thu 11:57:00 PM 34.9746 102.9029 336° Northwest  Level Estimated
Thu 11:58:00 PM 35.0452 102.8646 336° Northwest  Level Estimated
Thu 11:59:00 PM 35.1158 102.8262 336° Northwest  Level Estimated
Fri 12:00:00 AM 35.1865 102.7877 336° Northwest  Level Estimated
Fri 12:01:00 AM 35.2571 102.7492 336° Northwest  Level Estimated
Fri 12:02:00 AM 35.3277 102.7106 336° Northwest  Level Estimated
Fri 12:03:00 AM 35.3982 102.6719 336° Northwest  Level Estimated
Fri 12:04:00 AM 35.4688 102.6332 336° Northwest  Level Estimated
Fri 12:05:00 AM 35.5394 102.5944 336° Northwest  Level Estimated
Fri 12:06:00 AM 35.6099 102.5555 336° Northwest  Level Estimated
Fri 12:07:00 AM 35.6805 102.5165 336° Northwest  Level Estimated
Fri 12:08:00 AM 35.7510 102.4775 336° Northwest  Level Estimated
Fri 12:09:00 AM 35.8215 102.4384 336° Northwest  Level Estimated
Fri 12:10:00 AM 35.8920 102.3993 336° Northwest  Level Estimated
Fri 12:11:00 AM 35.9625 102.3601 336° Northwest  Level Estimated
Fri 12:12:00 AM 36.0329 102.3208 336° Northwest  Level Estimated
Fri 12:13:00 AM 36.1034 102.2814 336° Northwest  Level Estimated
Fri 12:14:00 AM 36.1738 102.2420 336° Northwest  Level Estimated
Fri 12:15:00 AM 36.2443 102.2024 336° Northwest  Level Estimated
Fri 12:16:00 AM 36.3147 102.1629 336° Northwest  Level Estimated
Fri 12:17:00 AM 36.3851 102.1232 336° Northwest  Level Estimated
Fri 12:18:00 AM 36.4555 102.0835 336° Northwest  Level Estimated
Fri 12:19:00 AM 36.5259 102.0437 336° Northwest  Level Estimated
Fri 12:20:00 AM 36.5275 102.0428 335° Northwest  Level Estimated
Fri 12:21:00 AM 36.5275 102.0428 270° West  Level Estimated
Fri 12:22:00 AM 36.5275 102.0428 270° West  Level Estimated
Fri 12:23:00 AM 36.5275 102.0428 270° West  Level Estimated
Fri 12:24:00 AM 36.5275 102.0428 270° West  Level Estimated
Fri 12:25:00 AM 36.5275 102.0428 270° West  Level Estimated
Fri 12:26:00 AM 36.5275 102.0428 270° West  Level Estimated
Fri 12:27:00 AM 36.5275 102.0428 270° West  Level Estimated
Fri 12:28:00 AM 36.5275 102.0428 270° West  Level Estimated
Fri 12:29:00 AM 36.5275 102.0428 270° West  Level Estimated
Fri 12:30:00 AM 36.5275 102.0428 270° West  Level Estimated
Fri 12:31:00 AM 36.5275 102.0428 270° West  Level Estimated
Fri 12:32:00 AM 36.5275 102.0428 270° West  Level Estimated
Fri 12:33:00 AM 36.5275 102.0428 270° West  Level Estimated
Fri 12:34:00 AM 36.5275 102.0428 270° West  Level Estimated
Fri 12:35:00 AM 36.5275 102.0428 270° West  Level Estimated

Login

Don't have an account? Register now (free) for customized features, flight alerts, and more!